sensor_id;sensor_type;location;lat;lon;timestamp;P1;durP1;ratioP1;P2;durP2;ratioP2
30934;SDS011;51033;42.648;23.292;2022-10-20T00:01:54;18.95;;;14.65;;
30934;SDS011;51033;42.648;23.292;2022-10-20T00:04:19;19.42;;;14.15;;
30934;SDS011;51033;42.648;23.292;2022-10-20T00:06:45;19.50;;;13.23;;
30934;SDS011;51033;42.648;23.292;2022-10-20T00:09:10;19.95;;;13.82;;
30934;SDS011;51033;42.648;23.292;2022-10-20T00:11:35;17.20;;;12.48;;
30934;SDS011;51033;42.648;23.292;2022-10-20T00:14:01;17.05;;;11.40;;
30934;SDS011;51033;42.648;23.292;2022-10-20T00:16:28;21.88;;;11.45;;
30934;SDS011;51033;42.648;23.292;2022-10-20T00:18:55;15.60;;;12.02;;
30934;SDS011;51033;42.648;23.292;2022-10-20T00:21:22;19.58;;;13.75;;
30934;SDS011;51033;42.648;23.292;2022-10-20T00:23:50;15.45;;;11.00;;
30934;SDS011;51033;42.648;23.292;2022-10-20T00:26:16;17.20;;;11.88;;
30934;SDS011;51033;42.648;23.292;2022-10-20T00:28:44;16.63;;;11.52;;
30934;SDS011;51033;42.648;23.292;2022-10-20T00:31:10;15.50;;;11.45;;
30934;SDS011;51033;42.648;23.292;2022-10-20T00:33:36;13.57;;;11.30;;
30934;SDS011;51033;42.648;23.292;2022-10-20T00:36:02;13.60;;;11.10;;
30934;SDS011;51033;42.648;23.292;2022-10-20T00:38:29;17.05;;;11.18;;
30934;SDS011;51033;42.648;23.292;2022-10-20T00:40:55;14.98;;;10.63;;
30934;SDS011;51033;42.648;23.292;2022-10-20T00:43:25;15.63;;;10.15;;
30934;SDS011;51033;42.648;23.292;2022-10-20T00:46:09;11.80;;;9.02;;
30934;SDS011;51033;42.648;23.292;2022-10-20T00:48:40;14.90;;;9.25;;
30934;SDS011;51033;42.648;23.292;2022-10-20T00:51:10;11.48;;;9.07;;
30934;SDS011;51033;42.648;23.292;2022-10-20T00:53:39;12.40;;;9.55;;
30934;SDS011;51033;42.648;23.292;2022-10-20T00:56:05;12.23;;;9.48;;
30934;SDS011;51033;42.648;23.292;2022-10-20T00:58:31;12.85;;;8.63;;
30934;SDS011;51033;42.648;23.292;2022-10-20T01:00:58;12.50;;;8.63;;
30934;SDS011;51033;42.648;23.292;2022-10-20T01:03:26;17.27;;;11.18;;
30934;SDS011;51033;42.648;23.292;2022-10-20T01:05:56;10.18;;;8.18;;
30934;SDS011;51033;42.648;23.292;2022-10-20T01:08:21;12.93;;;8.23;;
30934;SDS011;51033;42.648;23.292;2022-10-20T01:11:08;10.40;;;7.80;;
30934;SDS011;51033;42.648;23.292;2022-10-20T01:16:18;12.38;;;8.00;;
30934;SDS011;51033;42.648;23.292;2022-10-20T01:21:53;10.23;;;8.20;;
30934;SDS011;51033;42.648;23.292;2022-10-20T01:27:11;11.23;;;8.65;;
30934;SDS011;51033;42.648;23.292;2022-10-20T01:29:48;10.30;;;8.13;;
30934;SDS011;51033;42.648;23.292;2022-10-20T01:35:24;10.50;;;8.07;;
30934;SDS011;51033;42.648;23.292;2022-10-20T01:40:44;10.32;;;8.18;;
30934;SDS011;51033;42.648;23.292;2022-10-20T01:43:17;11.70;;;7.63;;
30934;SDS011;51033;42.648;23.292;2022-10-20T01:45:46;11.65;;;8.25;;
30934;SDS011;51033;42.648;23.292;2022-10-20T01:48:14;10.70;;;8.00;;
30934;SDS011;51033;42.648;23.292;2022-10-20T01:50:42;10.45;;;7.78;;
30934;SDS011;51033;42.648;23.292;2022-10-20T01:53:11;10.32;;;8.23;;
30934;SDS011;51033;42.648;23.292;2022-10-20T01:55:37;8.98;;;7.05;;
30934;SDS011;51033;42.648;23.292;2022-10-20T02:00:52;10.60;;;7.57;;
30934;SDS011;51033;42.648;23.292;2022-10-20T02:03:44;9.80;;;7.97;;
30934;SDS011;51033;42.648;23.292;2022-10-20T02:08:58;8.77;;;7.55;;
30934;SDS011;51033;42.648;23.292;2022-10-20T02:14:22;11.82;;;7.95;;
30934;SDS011;51033;42.648;23.292;2022-10-20T02:16:49;11.23;;;7.43;;
30934;SDS011;51033;42.648;23.292;2022-10-20T02:19:20;9.25;;;7.70;;
30934;SDS011;51033;42.648;23.292;2022-10-20T02:21:47;9.82;;;7.22;;
30934;SDS011;51033;42.648;23.292;2022-10-20T02:24:15;10.93;;;7.97;;
30934;SDS011;51033;42.648;23.292;2022-10-20T02:26:43;12.15;;;8.38;;
30934;SDS011;51033;42.648;23.292;2022-10-20T02:29:14;10.35;;;7.82;;
30934;SDS011;51033;42.648;23.292;2022-10-20T02:31:44;11.13;;;8.68;;
30934;SDS011;51033;42.648;23.292;2022-10-20T02:34:10;10.48;;;8.27;;
30934;SDS011;51033;42.648;23.292;2022-10-20T02:36:40;11.38;;;8.25;;
30934;SDS011;51033;42.648;23.292;2022-10-20T02:39:07;11.90;;;8.35;;
30934;SDS011;51033;42.648;23.292;2022-10-20T02:41:33;12.98;;;8.27;;
30934;SDS011;51033;42.648;23.292;2022-10-20T02:43:59;10.32;;;8.35;;
30934;SDS011;51033;42.648;23.292;2022-10-20T02:46:24;10.15;;;7.93;;
30934;SDS011;51033;42.648;23.292;2022-10-20T02:48:50;13.15;;;8.93;;
30934;SDS011;51033;42.648;23.292;2022-10-20T02:51:15;14.05;;;8.57;;
30934;SDS011;51033;42.648;23.292;2022-10-20T02:53:41;13.35;;;8.68;;
30934;SDS011;51033;42.648;23.292;2022-10-20T02:56:07;12.80;;;8.57;;
30934;SDS011;51033;42.648;23.292;2022-10-20T02:58:33;18.45;;;8.93;;
30934;SDS011;51033;42.648;23.292;2022-10-20T03:00:58;12.27;;;8.48;;
30934;SDS011;51033;42.648;23.292;2022-10-20T03:03:24;12.90;;;9.27;;
30934;SDS011;51033;42.648;23.292;2022-10-20T03:05:49;12.00;;;8.40;;
30934;SDS011;51033;42.648;23.292;2022-10-20T03:08:14;11.38;;;8.23;;
30934;SDS011;51033;42.648;23.292;2022-10-20T03:10:40;14.27;;;8.30;;
30934;SDS011;51033;42.648;23.292;2022-10-20T03:13:06;14.43;;;9.45;;
30934;SDS011;51033;42.648;23.292;2022-10-20T03:15:33;13.18;;;9.45;;
30934;SDS011;51033;42.648;23.292;2022-10-20T03:17:58;13.63;;;8.70;;
30934;SDS011;51033;42.648;23.292;2022-10-20T03:20:24;14.15;;;9.55;;
30934;SDS011;51033;42.648;23.292;2022-10-20T03:22:50;14.93;;;8.82;;
30934;SDS011;51033;42.648;23.292;2022-10-20T03:25:15;14.48;;;9.25;;
30934;SDS011;51033;42.648;23.292;2022-10-20T03:27:40;12.45;;;9.10;;
30934;SDS011;51033;42.648;23.292;2022-10-20T03:30:06;14.02;;;8.82;;
30934;SDS011;51033;42.648;23.292;2022-10-20T03:32:32;14.15;;;9.93;;
30934;SDS011;51033;42.648;23.292;2022-10-20T03:34:57;11.93;;;9.88;;
30934;SDS011;51033;42.648;23.292;2022-10-20T03:37:22;14.18;;;9.20;;
30934;SDS011;51033;42.648;23.292;2022-10-20T03:39:48;15.05;;;10.43;;
30934;SDS011;51033;42.648;23.292;2022-10-20T03:42:13;11.00;;;8.30;;
30934;SDS011;51033;42.648;23.292;2022-10-20T03:44:39;11.65;;;8.90;;
30934;SDS011;51033;42.648;23.292;2022-10-20T03:47:04;11.88;;;8.30;;
30934;SDS011;51033;42.648;23.292;2022-10-20T03:49:30;11.70;;;8.80;;
30934;SDS011;51033;42.648;23.292;2022-10-20T03:51:57;12.40;;;9.20;;
30934;SDS011;51033;42.648;23.292;2022-10-20T03:54:23;12.13;;;8.45;;
30934;SDS011;51033;42.648;23.292;2022-10-20T03:56:48;11.70;;;8.45;;
30934;SDS011;51033;42.648;23.292;2022-10-20T03:59:14;13.88;;;8.23;;
30934;SDS011;51033;42.648;23.292;2022-10-20T04:01:41;12.80;;;8.32;;
30934;SDS011;51033;42.648;23.292;2022-10-20T04:04:09;14.77;;;8.23;;
30934;SDS011;51033;42.648;23.292;2022-10-20T04:06:35;12.55;;;8.10;;
30934;SDS011;51033;42.648;23.292;2022-10-20T04:09:00;9.85;;;7.00;;
30934;SDS011;51033;42.648;23.292;2022-10-20T04:11:25;9.55;;;7.05;;
30934;SDS011;51033;42.648;23.292;2022-10-20T04:13:51;11.00;;;8.43;;
30934;SDS011;51033;42.648;23.292;2022-10-20T04:16:17;10.38;;;7.28;;
30934;SDS011;51033;42.648;23.292;2022-10-20T04:18:42;10.18;;;7.47;;
30934;SDS011;51033;42.648;23.292;2022-10-20T04:21:08;9.75;;;6.88;;
30934;SDS011;51033;42.648;23.292;2022-10-20T04:23:33;15.45;;;7.53;;
30934;SDS011;51033;42.648;23.292;2022-10-20T04:25:59;10.32;;;6.72;;
30934;SDS011;51033;42.648;23.292;2022-10-20T04:28:24;9.25;;;6.97;;
30934;SDS011;51033;42.648;23.292;2022-10-20T04:30:49;9.55;;;7.38;;
30934;SDS011;51033;42.648;23.292;2022-10-20T04:33:15;11.63;;;8.50;;
30934;SDS011;51033;42.648;23.292;2022-10-20T04:35:41;8.98;;;6.68;;
30934;SDS011;51033;42.648;23.292;2022-10-20T04:38:06;9.60;;;7.28;;
30934;SDS011;51033;42.648;23.292;2022-10-20T04:40:32;10.63;;;6.82;;
30934;SDS011;51033;42.648;23.292;2022-10-20T04:42:58;18.77;;;6.53;;
30934;SDS011;51033;42.648;23.292;2022-10-20T04:45:24;11.25;;;7.22;;
30934;SDS011;51033;42.648;23.292;2022-10-20T04:47:50;9.23;;;6.65;;
30934;SDS011;51033;42.648;23.292;2022-10-20T04:50:16;8.25;;;6.93;;
30934;SDS011;51033;42.648;23.292;2022-10-20T04:52:42;11.23;;;6.60;;
30934;SDS011;51033;42.648;23.292;2022-10-20T04:55:07;9.50;;;6.72;;
30934;SDS011;51033;42.648;23.292;2022-10-20T04:57:33;15.95;;;8.02;;
30934;SDS011;51033;42.648;23.292;2022-10-20T04:59:58;8.70;;;6.15;;
30934;SDS011;51033;42.648;23.292;2022-10-20T05:02:24;9.60;;;6.75;;
30934;SDS011;51033;42.648;23.292;2022-10-20T05:04:49;10.00;;;6.25;;
30934;SDS011;51033;42.648;23.292;2022-10-20T05:07:15;8.20;;;5.82;;
30934;SDS011;51033;42.648;23.292;2022-10-20T05:09:40;6.72;;;5.30;;
30934;SDS011;51033;42.648;23.292;2022-10-20T05:12:05;8.82;;;5.85;;
30934;SDS011;51033;42.648;23.292;2022-10-20T05:14:32;8.05;;;6.00;;
30934;SDS011;51033;42.648;23.292;2022-10-20T05:16:57;8.98;;;6.18;;
30934;SDS011;51033;42.648;23.292;2022-10-20T05:19:23;10.63;;;6.22;;
30934;SDS011;51033;42.648;23.292;2022-10-20T05:21:48;10.20;;;6.60;;
30934;SDS011;51033;42.648;23.292;2022-10-20T05:24:14;7.85;;;6.20;;
30934;SDS011;51033;42.648;23.292;2022-10-20T05:26:42;8.95;;;6.10;;
30934;SDS011;51033;42.648;23.292;2022-10-20T05:29:08;10.38;;;7.10;;
30934;SDS011;51033;42.648;23.292;2022-10-20T05:31:35;11.18;;;6.38;;
30934;SDS011;51033;42.648;23.292;2022-10-20T05:34:02;10.23;;;6.22;;
30934;SDS011;51033;42.648;23.292;2022-10-20T05:36:28;11.05;;;6.45;;
30934;SDS011;51033;42.648;23.292;2022-10-20T05:38:54;9.27;;;6.65;;
30934;SDS011;51033;42.648;23.292;2022-10-20T05:41:21;9.52;;;7.20;;
30934;SDS011;51033;42.648;23.292;2022-10-20T05:43:53;9.10;;;6.43;;
30934;SDS011;51033;42.648;23.292;2022-10-20T05:46:21;10.52;;;7.30;;
30934;SDS011;51033;42.648;23.292;2022-10-20T05:48:51;11.80;;;7.03;;
30934;SDS011;51033;42.648;23.292;2022-10-20T05:51:18;12.38;;;6.80;;
30934;SDS011;51033;42.648;23.292;2022-10-20T05:53:45;11.85;;;6.53;;
30934;SDS011;51033;42.648;23.292;2022-10-20T05:56:15;13.70;;;6.90;;
30934;SDS011;51033;42.648;23.292;2022-10-20T05:58:42;11.35;;;7.22;;
30934;SDS011;51033;42.648;23.292;2022-10-20T06:01:19;15.05;;;7.55;;
30934;SDS011;51033;42.648;23.292;2022-10-20T06:03:48;11.30;;;8.20;;
30934;SDS011;51033;42.648;23.292;2022-10-20T06:06:15;11.13;;;7.93;;
30934;SDS011;51033;42.648;23.292;2022-10-20T06:08:41;12.73;;;7.93;;
30934;SDS011;51033;42.648;23.292;2022-10-20T06:11:07;12.75;;;8.93;;
30934;SDS011;51033;42.648;23.292;2022-10-20T06:13:33;10.15;;;7.43;;
30934;SDS011;51033;42.648;23.292;2022-10-20T06:16:03;11.38;;;7.63;;
30934;SDS011;51033;42.648;23.292;2022-10-20T06:18:32;16.02;;;9.43;;
30934;SDS011;51033;42.648;23.292;2022-10-20T06:20:59;11.43;;;8.02;;
30934;SDS011;51033;42.648;23.292;2022-10-20T06:23:25;12.68;;;7.68;;
30934;SDS011;51033;42.648;23.292;2022-10-20T06:25:50;9.50;;;7.03;;
30934;SDS011;51033;42.648;23.292;2022-10-20T06:28:16;10.65;;;7.70;;
30934;SDS011;51033;42.648;23.292;2022-10-20T06:30:42;12.20;;;7.30;;
30934;SDS011;51033;42.648;23.292;2022-10-20T06:33:07;10.98;;;7.45;;
30934;SDS011;51033;42.648;23.292;2022-10-20T06:35:36;13.32;;;8.75;;
30934;SDS011;51033;42.648;23.292;2022-10-20T06:38:04;12.18;;;8.32;;
30934;SDS011;51033;42.648;23.292;2022-10-20T06:40:30;10.27;;;7.18;;
30934;SDS011;51033;42.648;23.292;2022-10-20T06:42:55;15.95;;;7.45;;
30934;SDS011;51033;42.648;23.292;2022-10-20T06:45:20;9.70;;;7.03;;
30934;SDS011;51033;42.648;23.292;2022-10-20T06:47:46;9.57;;;7.75;;
30934;SDS011;51033;42.648;23.292;2022-10-20T06:50:11;10.23;;;7.50;;
30934;SDS011;51033;42.648;23.292;2022-10-20T06:52:36;12.30;;;8.48;;
30934;SDS011;51033;42.648;23.292;2022-10-20T06:55:02;11.52;;;8.38;;
30934;SDS011;51033;42.648;23.292;2022-10-20T06:57:29;12.57;;;8.57;;
30934;SDS011;51033;42.648;23.292;2022-10-20T06:59:56;10.68;;;8.27;;
30934;SDS011;51033;42.648;23.292;2022-10-20T07:02:23;13.52;;;8.50;;
30934;SDS011;51033;42.648;23.292;2022-10-20T07:04:51;12.93;;;8.23;;
30934;SDS011;51033;42.648;23.292;2022-10-20T07:07:16;11.65;;;7.93;;
30934;SDS011;51033;42.648;23.292;2022-10-20T07:09:42;12.85;;;9.27;;
30934;SDS011;51033;42.648;23.292;2022-10-20T07:12:07;11.88;;;8.20;;
30934;SDS011;51033;42.648;23.292;2022-10-20T07:14:32;11.48;;;7.93;;
30934;SDS011;51033;42.648;23.292;2022-10-20T07:17:01;14.52;;;8.55;;
30934;SDS011;51033;42.648;23.292;2022-10-20T07:19:28;11.88;;;7.95;;
30934;SDS011;51033;42.648;23.292;2022-10-20T07:21:53;15.90;;;8.20;;
30934;SDS011;51033;42.648;23.292;2022-10-20T07:24:19;11.52;;;8.48;;
30934;SDS011;51033;42.648;23.292;2022-10-20T07:26:44;10.27;;;8.23;;
30934;SDS011;51033;42.648;23.292;2022-10-20T07:29:09;13.45;;;7.95;;
30934;SDS011;51033;42.648;23.292;2022-10-20T07:31:37;12.25;;;8.32;;
30934;SDS011;51033;42.648;23.292;2022-10-20T07:34:04;12.00;;;8.05;;
30934;SDS011;51033;42.648;23.292;2022-10-20T07:36:31;11.40;;;7.28;;
30934;SDS011;51033;42.648;23.292;2022-10-20T07:38:59;10.05;;;8.20;;
30934;SDS011;51033;42.648;23.292;2022-10-20T07:41:26;11.77;;;8.15;;
30934;SDS011;51033;42.648;23.292;2022-10-20T07:43:52;8.95;;;7.13;;
30934;SDS011;51033;42.648;23.292;2022-10-20T07:46:19;10.52;;;7.95;;
30934;SDS011;51033;42.648;23.292;2022-10-20T07:48:44;12.45;;;8.40;;
30934;SDS011;51033;42.648;23.292;2022-10-20T07:51:24;12.18;;;7.25;;
30934;SDS011;51033;42.648;23.292;2022-10-20T07:56:26;12.55;;;8.30;;
30934;SDS011;51033;42.648;23.292;2022-10-20T07:58:57;8.70;;;6.40;;
30934;SDS011;51033;42.648;23.292;2022-10-20T08:01:23;12.23;;;7.47;;
30934;SDS011;51033;42.648;23.292;2022-10-20T08:03:48;13.05;;;6.85;;
30934;SDS011;51033;42.648;23.292;2022-10-20T08:06:14;11.23;;;8.02;;
30934;SDS011;51033;42.648;23.292;2022-10-20T08:08:39;13.52;;;7.75;;
30934;SDS011;51033;42.648;23.292;2022-10-20T08:11:05;9.20;;;6.78;;
30934;SDS011;51033;42.648;23.292;2022-10-20T08:13:30;10.30;;;7.55;;
30934;SDS011;51033;42.648;23.292;2022-10-20T08:15:56;10.10;;;6.82;;
30934;SDS011;51033;42.648;23.292;2022-10-20T08:18:21;9.15;;;6.70;;
30934;SDS011;51033;42.648;23.292;2022-10-20T08:20:47;7.43;;;6.65;;
30934;SDS011;51033;42.648;23.292;2022-10-20T08:23:12;10.05;;;6.18;;
30934;SDS011;51033;42.648;23.292;2022-10-20T08:25:39;7.72;;;6.25;;
30934;SDS011;51033;42.648;23.292;2022-10-20T08:28:05;10.95;;;6.50;;
30934;SDS011;51033;42.648;23.292;2022-10-20T08:30:31;8.38;;;5.95;;
30934;SDS011;51033;42.648;23.292;2022-10-20T08:32:56;9.48;;;6.60;;
30934;SDS011;51033;42.648;23.292;2022-10-20T08:35:22;12.30;;;6.28;;
30934;SDS011;51033;42.648;23.292;2022-10-20T08:37:48;11.50;;;6.55;;
30934;SDS011;51033;42.648;23.292;2022-10-20T08:40:23;10.02;;;6.55;;
30934;SDS011;51033;42.648;23.292;2022-10-20T08:42:50;7.78;;;5.53;;
30934;SDS011;51033;42.648;23.292;2022-10-20T08:45:21;7.65;;;6.45;;
30934;SDS011;51033;42.648;23.292;2022-10-20T08:47:49;11.02;;;5.03;;
30934;SDS011;51033;42.648;23.292;2022-10-20T08:50:18;7.82;;;5.32;;
30934;SDS011;51033;42.648;23.292;2022-10-20T08:52:46;7.55;;;5.15;;
30934;SDS011;51033;42.648;23.292;2022-10-20T08:55:35;6.70;;;5.18;;
30934;SDS011;51033;42.648;23.292;2022-10-20T08:58:10;7.85;;;5.10;;
30934;SDS011;51033;42.648;23.292;2022-10-20T09:00:38;8.65;;;5.38;;
30934;SDS011;51033;42.648;23.292;2022-10-20T09:05:42;5.57;;;4.57;;
30934;SDS011;51033;42.648;23.292;2022-10-20T09:08:13;6.68;;;4.28;;
30934;SDS011;51033;42.648;23.292;2022-10-20T09:10:40;5.47;;;4.25;;
30934;SDS011;51033;42.648;23.292;2022-10-20T09:13:24;12.25;;;4.32;;
30934;SDS011;51033;42.648;23.292;2022-10-20T09:16:02;7.18;;;4.35;;
30934;SDS011;51033;42.648;23.292;2022-10-20T09:18:30;4.70;;;3.95;;
30934;SDS011;51033;42.648;23.292;2022-10-20T09:21:02;6.65;;;3.63;;
30934;SDS011;51033;42.648;23.292;2022-10-20T09:23:38;6.53;;;4.22;;
30934;SDS011;51033;42.648;23.292;2022-10-20T09:26:10;5.30;;;3.97;;
30934;SDS011;51033;42.648;23.292;2022-10-20T09:28:38;4.78;;;3.80;;
30934;SDS011;51033;42.648;23.292;2022-10-20T09:31:04;5.53;;;3.75;;
30934;SDS011;51033;42.648;23.292;2022-10-20T09:33:48;7.10;;;3.97;;
30934;SDS011;51033;42.648;23.292;2022-10-20T09:36:15;6.22;;;3.45;;
30934;SDS011;51033;42.648;23.292;2022-10-20T09:38:43;5.05;;;3.38;;
30934;SDS011;51033;42.648;23.292;2022-10-20T09:41:19;7.00;;;3.42;;
30934;SDS011;51033;42.648;23.292;2022-10-20T09:46:22;4.72;;;3.33;;
30934;SDS011;51033;42.648;23.292;2022-10-20T09:48:51;4.28;;;3.55;;
30934;SDS011;51033;42.648;23.292;2022-10-20T09:51:26;5.88;;;3.60;;
30934;SDS011;51033;42.648;23.292;2022-10-20T09:53:57;3.88;;;3.38;;
30934;SDS011;51033;42.648;23.292;2022-10-20T09:59:06;3.80;;;3.33;;
30934;SDS011;51033;42.648;23.292;2022-10-20T10:04:38;6.05;;;3.15;;
30934;SDS011;51033;42.648;23.292;2022-10-20T10:07:09;3.92;;;2.78;;
30934;SDS011;51033;42.648;23.292;2022-10-20T10:09:55;3.97;;;2.72;;
30934;SDS011;51033;42.648;23.292;2022-10-20T10:12:22;3.60;;;2.95;;
30934;SDS011;51033;42.648;23.292;2022-10-20T10:14:50;3.78;;;2.55;;
30934;SDS011;51033;42.648;23.292;2022-10-20T10:17:38;4.80;;;3.42;;
30934;SDS011;51033;42.648;23.292;2022-10-20T10:20:10;6.00;;;3.10;;
30934;SDS011;51033;42.648;23.292;2022-10-20T10:23:05;3.45;;;3.08;;
30934;SDS011;51033;42.648;23.292;2022-10-20T10:28:28;4.78;;;2.90;;
30934;SDS011;51033;42.648;23.292;2022-10-20T10:33:41;4.38;;;3.13;;
30934;SDS011;51033;42.648;23.292;2022-10-20T10:38:59;3.45;;;2.78;;
30934;SDS011;51033;42.648;23.292;2022-10-20T10:43:59;3.95;;;3.10;;
30934;SDS011;51033;42.648;23.292;2022-10-20T10:46:35;4.82;;;2.85;;
30934;SDS011;51033;42.648;23.292;2022-10-20T10:52:06;4.43;;;3.00;;
30934;SDS011;51033;42.648;23.292;2022-10-20T10:57:22;4.55;;;2.38;;
30934;SDS011;51033;42.648;23.292;2022-10-20T10:59:50;3.30;;;2.60;;
30934;SDS011;51033;42.648;23.292;2022-10-20T11:13:40;4.40;;;3.20;;
30934;SDS011;51033;42.648;23.292;2022-10-20T11:28:54;3.63;;;2.85;;
30934;SDS011;51033;42.648;23.292;2022-10-20T11:34:22;5.50;;;3.03;;
30934;SDS011;51033;42.648;23.292;2022-10-20T11:37:16;4.40;;;3.03;;
30934;SDS011;51033;42.648;23.292;2022-10-20T11:39:52;4.18;;;3.40;;
30934;SDS011;51033;42.648;23.292;2022-10-20T11:42:30;6.03;;;2.85;;
30934;SDS011;51033;42.648;23.292;2022-10-20T11:45:00;8.65;;;3.58;;
30934;SDS011;51033;42.648;23.292;2022-10-20T11:47:30;3.90;;;3.15;;
30934;SDS011;51033;42.648;23.292;2022-10-20T11:50:02;3.40;;;3.10;;
30934;SDS011;51033;42.648;23.292;2022-10-20T11:56:06;4.20;;;3.22;;
30934;SDS011;51033;42.648;23.292;2022-10-20T11:58:28;5.32;;;3.00;;
30934;SDS011;51033;42.648;23.292;2022-10-20T12:07:36;5.18;;;3.45;;
30934;SDS011;51033;42.648;23.292;2022-10-20T12:10:31;4.75;;;3.10;;
30934;SDS011;51033;42.648;23.292;2022-10-20T12:15:49;3.72;;;2.60;;
30934;SDS011;51033;42.648;23.292;2022-10-20T12:18:18;3.50;;;3.20;;
30934;SDS011;51033;42.648;23.292;2022-10-20T12:21:00;4.63;;;2.70;;
30934;SDS011;51033;42.648;23.292;2022-10-20T12:28:54;3.03;;;2.58;;
30934;SDS011;51033;42.648;23.292;2022-10-20T12:31:20;3.25;;;2.80;;
30934;SDS011;51033;42.648;23.292;2022-10-20T12:38:49;3.95;;;2.70;;
30934;SDS011;51033;42.648;23.292;2022-10-20T12:41:30;2.40;;;2.10;;
30934;SDS011;51033;42.648;23.292;2022-10-20T12:44:05;7.95;;;2.58;;
30934;SDS011;51033;42.648;23.292;2022-10-20T12:46:40;3.15;;;2.85;;
30934;SDS011;51033;42.648;23.292;2022-10-20T12:49:19;3.65;;;2.50;;
30934;SDS011;51033;42.648;23.292;2022-10-20T12:51:50;4.88;;;2.40;;
30934;SDS011;51033;42.648;23.292;2022-10-20T12:54:34;2.60;;;2.40;;
30934;SDS011;51033;42.648;23.292;2022-10-20T12:57:22;5.80;;;3.75;;
30934;SDS011;51033;42.648;23.292;2022-10-20T12:59:52;2.90;;;2.30;;
30934;SDS011;51033;42.648;23.292;2022-10-20T13:20:48;6.50;;;3.25;;
30934;SDS011;51033;42.648;23.292;2022-10-20T13:23:15;2.42;;;2.20;;
30934;SDS011;51033;42.648;23.292;2022-10-20T13:25:43;3.05;;;2.47;;
30934;SDS011;51033;42.648;23.292;2022-10-20T13:28:14;2.72;;;1.92;;
30934;SDS011;51033;42.648;23.292;2022-10-20T13:38:46;4.35;;;2.75;;
30934;SDS011;51033;42.648;23.292;2022-10-20T13:41:23;2.95;;;2.42;;
30934;SDS011;51033;42.648;23.292;2022-10-20T13:49:31;2.95;;;2.60;;
30934;SDS011;51033;42.648;23.292;2022-10-20T13:52:21;2.47;;;2.15;;
30934;SDS011;51033;42.648;23.292;2022-10-20T13:54:47;3.83;;;2.95;;
30934;SDS011;51033;42.648;23.292;2022-10-20T14:00:02;4.18;;;2.22;;
30934;SDS011;51033;42.648;23.292;2022-10-20T14:02:40;3.05;;;2.50;;
30934;SDS011;51033;42.648;23.292;2022-10-20T14:05:07;2.42;;;2.03;;
30934;SDS011;51033;42.648;23.292;2022-10-20T14:07:40;2.80;;;2.38;;
30934;SDS011;51033;42.648;23.292;2022-10-20T14:10:19;3.47;;;2.45;;
30934;SDS011;51033;42.648;23.292;2022-10-20T14:13:01;6.18;;;2.67;;
30934;SDS011;51033;42.648;23.292;2022-10-20T14:15:32;6.53;;;2.20;;
30934;SDS011;51033;42.648;23.292;2022-10-20T14:18:03;3.47;;;2.42;;
30934;SDS011;51033;42.648;23.292;2022-10-20T14:20:43;3.97;;;2.67;;
30934;SDS011;51033;42.648;23.292;2022-10-20T14:23:21;3.90;;;2.20;;
30934;SDS011;51033;42.648;23.292;2022-10-20T14:25:49;2.75;;;2.22;;
30934;SDS011;51033;42.648;23.292;2022-10-20T14:28:17;9.30;;;2.83;;
30934;SDS011;51033;42.648;23.292;2022-10-20T14:30:48;7.32;;;2.92;;
30934;SDS011;51033;42.648;23.292;2022-10-20T14:33:15;6.05;;;2.72;;
30934;SDS011;51033;42.648;23.292;2022-10-20T14:35:52;4.80;;;2.30;;
30934;SDS011;51033;42.648;23.292;2022-10-20T14:38:20;9.30;;;2.83;;
30934;SDS011;51033;42.648;23.292;2022-10-20T14:40:52;15.35;;;4.15;;
30934;SDS011;51033;42.648;23.292;2022-10-20T14:43:20;5.50;;;3.15;;
30934;SDS011;51033;42.648;23.292;2022-10-20T14:45:56;7.32;;;3.20;;
30934;SDS011;51033;42.648;23.292;2022-10-20T14:48:28;5.88;;;2.63;;
30934;SDS011;51033;42.648;23.292;2022-10-20T14:54:55;6.85;;;2.47;;
30934;SDS011;51033;42.648;23.292;2022-10-20T14:56:58;5.97;;;3.38;;
30934;SDS011;51033;42.648;23.292;2022-10-20T14:59:29;12.70;;;2.70;;
30934;SDS011;51033;42.648;23.292;2022-10-20T15:02:04;5.32;;;2.42;;
30934;SDS011;51033;42.648;23.292;2022-10-20T15:04:37;2.90;;;2.17;;
30934;SDS011;51033;42.648;23.292;2022-10-20T15:07:18;3.60;;;2.20;;
30934;SDS011;51033;42.648;23.292;2022-10-20T15:12:23;4.20;;;2.90;;
30934;SDS011;51033;42.648;23.292;2022-10-20T15:17:36;5.60;;;2.20;;
30934;SDS011;51033;42.648;23.292;2022-10-20T15:22:54;4.28;;;2.72;;
30934;SDS011;51033;42.648;23.292;2022-10-20T15:25:20;3.33;;;2.40;;
30934;SDS011;51033;42.648;23.292;2022-10-20T15:27:49;2.92;;;2.53;;
30934;SDS011;51033;42.648;23.292;2022-10-20T15:30:15;11.23;;;2.95;;
30934;SDS011;51033;42.648;23.292;2022-10-20T15:32:42;8.88;;;3.70;;
30934;SDS011;51033;42.648;23.292;2022-10-20T15:35:11;4.90;;;3.15;;
30934;SDS011;51033;42.648;23.292;2022-10-20T15:37:41;5.15;;;3.33;;
30934;SDS011;51033;42.648;23.292;2022-10-20T15:40:07;5.65;;;3.33;;
30934;SDS011;51033;42.648;23.292;2022-10-20T15:42:33;8.60;;;2.88;;
30934;SDS011;51033;42.648;23.292;2022-10-20T15:44:58;5.57;;;3.22;;
30934;SDS011;51033;42.648;23.292;2022-10-20T15:47:24;4.72;;;2.40;;
30934;SDS011;51033;42.648;23.292;2022-10-20T15:49:49;4.55;;;3.45;;
30934;SDS011;51033;42.648;23.292;2022-10-20T15:52:15;6.80;;;5.13;;
30934;SDS011;51033;42.648;23.292;2022-10-20T15:54:41;7.70;;;5.07;;
30934;SDS011;51033;42.648;23.292;2022-10-20T15:57:07;7.47;;;4.55;;
30934;SDS011;51033;42.648;23.292;2022-10-20T15:59:33;7.30;;;4.43;;
30934;SDS011;51033;42.648;23.292;2022-10-20T16:01:58;14.43;;;12.35;;
30934;SDS011;51033;42.648;23.292;2022-10-20T16:04:24;11.00;;;8.48;;
30934;SDS011;51033;42.648;23.292;2022-10-20T16:06:50;8.48;;;5.65;;
30934;SDS011;51033;42.648;23.292;2022-10-20T16:09:18;6.15;;;3.08;;
30934;SDS011;51033;42.648;23.292;2022-10-20T16:11:44;5.18;;;3.22;;
30934;SDS011;51033;42.648;23.292;2022-10-20T16:14:10;4.43;;;3.95;;
30934;SDS011;51033;42.648;23.292;2022-10-20T16:16:36;8.90;;;3.88;;
30934;SDS011;51033;42.648;23.292;2022-10-20T16:19:02;6.63;;;4.45;;
30934;SDS011;51033;42.648;23.292;2022-10-20T16:21:28;7.90;;;5.15;;
30934;SDS011;51033;42.648;23.292;2022-10-20T16:23:53;7.50;;;4.32;;
30934;SDS011;51033;42.648;23.292;2022-10-20T16:26:19;4.65;;;2.60;;
30934;SDS011;51033;42.648;23.292;2022-10-20T16:28:45;13.52;;;6.30;;
30934;SDS011;51033;42.648;23.292;2022-10-20T16:31:11;11.40;;;6.38;;
30934;SDS011;51033;42.648;23.292;2022-10-20T16:33:40;7.25;;;5.05;;
30934;SDS011;51033;42.648;23.292;2022-10-20T16:36:07;8.55;;;4.28;;
30934;SDS011;51033;42.648;23.292;2022-10-20T16:38:34;5.13;;;3.70;;
30934;SDS011;51033;42.648;23.292;2022-10-20T16:41:02;9.75;;;4.45;;
30934;SDS011;51033;42.648;23.292;2022-10-20T16:43:30;8.00;;;6.20;;
30934;SDS011;51033;42.648;23.292;2022-10-20T16:45:56;7.97;;;5.03;;
30934;SDS011;51033;42.648;23.292;2022-10-20T16:48:22;6.53;;;4.22;;
30934;SDS011;51033;42.648;23.292;2022-10-20T16:50:48;4.65;;;3.38;;
30934;SDS011;51033;42.648;23.292;2022-10-20T16:53:13;10.75;;;6.38;;
30934;SDS011;51033;42.648;23.292;2022-10-20T16:55:39;10.00;;;5.97;;
30934;SDS011;51033;42.648;23.292;2022-10-20T16:58:05;5.95;;;4.07;;
30934;SDS011;51033;42.648;23.292;2022-10-20T17:00:30;10.05;;;5.97;;
30934;SDS011;51033;42.648;23.292;2022-10-20T17:02:56;9.45;;;5.68;;
30934;SDS011;51033;42.648;23.292;2022-10-20T17:05:22;7.15;;;3.83;;
30934;SDS011;51033;42.648;23.292;2022-10-20T17:07:47;4.82;;;3.95;;